Map

Track Data

SID SEASON NUMBER BASIN SUBBASIN NAME ISO_TIME NATURE LAT LON WMO_WIND WMO_PRES WMO_AGENCY TRACK_TYPE DIST2LAND LANDFALL IFLAG USA_AGENCY USA_ATCF_ID USA_LAT USA_LON USA_RECORD USA_STATUS USA_WIND USA_PRES USA_SSHS USA_R34_NE USA_R34_SE USA_R34_SW USA_R34_NW USA_R50_NE USA_R50_SE USA_R50_SW USA_R50_NW USA_R64_NE USA_R64_SE USA_R64_SW USA_R64_NW USA_POCI USA_ROCI USA_RMW USA_EYE TOKYO_LAT TOKYO_LON TOKYO_GRADE TOKYO_WIND TOKYO_PRES TOKYO_R50_DIR TOKYO_R50_LONG TOKYO_R50_SHORT TOKYO_R30_DIR TOKYO_R30_LONG TOKYO_R30_SHORT TOKYO_LAND CMA_LAT CMA_LON CMA_CAT CMA_WIND CMA_PRES HKO_LAT HKO_LON HKO_CAT HKO_WIND HKO_PRES NEWDELHI_LAT NEWDELHI_LON NEWDELHI_GRADE NEWDELHI_WIND NEWDELHI_PRES NEWDELHI_CI NEWDELHI_DP NEWDELHI_POCI REUNION_LAT REUNION_LON REUNION_TYPE REUNION_WIND REUNION_PRES REUNION_TNUM REUNION_CI REUNION_RMW REUNION_R34_NE REUNION_R34_SE REUNION_R34_SW REUNION_R34_NW REUNION_R50_NE REUNION_R50_SE REUNION_R50_SW REUNION_R50_NW REUNION_R64_NE REUNION_R64_SE REUNION_R64_SW REUNION_R64_NW BOM_LAT BOM_LON BOM_TYPE BOM_WIND BOM_PRES BOM_TNUM BOM_CI BOM_RMW BOM_R34_NE BOM_R34_SE BOM_R34_SW BOM_R34_NW BOM_R50_NE BOM_R50_SE BOM_R50_SW BOM_R50_NW BOM_R64_NE BOM_R64_SE BOM_R64_SW BOM_R64_NW BOM_ROCI BOM_POCI BOM_EYE BOM_POS_METHOD BOM_PRES_METHOD NADI_LAT NADI_LON NADI_CAT NADI_WIND NADI_PRES WELLINGTON_LAT WELLINGTON_LON WELLINGTON_WIND WELLINGTON_PRES DS824_LAT DS824_LON DS824_STAGE DS824_WIND DS824_PRES TD9636_LAT TD9636_LON TD9636_STAGE TD9636_WIND TD9636_PRES TD9635_LAT TD9635_LON TD9635_WIND TD9635_PRES TD9635_ROCI NEUMANN_LAT NEUMANN_LON NEUMANN_CLASS NEUMANN_WIND NEUMANN_PRES MLC_LAT MLC_LON MLC_CLASS MLC_WIND MLC_PRES USA_GUST BOM_GUST BOM_GUST_PER REUNION_GUST REUNION_GUST_PER USA_SEAHGT USA_SEARAD_NE USA_SEARAD_SE USA_SEARAD_SW USA_SEARAD_NW STORM_SPEED STORM_DIR
1923254N21145 1923 61 WP MM NOT_NAMED 1923-09-11 10:00:00 NR 20.8000 145.000 main 1651 1637 __________O___ -1 20.8000 145.000 7 5 324
1923254N21145 1923 61 WP MM NOT_NAMED 1923-09-11 12:00:00 NR 20.9314 144.898 main 1637 1610 __________P___ -1 20.9314 144.898 7 5 323
1923254N21145 1923 61 WP MM NOT_NAMED 1923-09-11 15:00:00 NR 21.1354 144.728 main 1610 1572 __________P___ -1 21.1354 144.728 7 6 320
1923254N21145 1923 61 WP MM NOT_NAMED 1923-09-11 18:00:00 NR 21.3574 144.511 main 1572 1542 __________P___ -1 21.3574 144.511 7 7 315
1923254N21145 1923 61 WP MM NOT_NAMED 1923-09-11 21:00:00 NR 21.6082 144.219 main 1542 1529 __________P___ -1 21.6082 144.219 7 8 312
1923254N21145 1923 61 WP MM NOT_NAMED 1923-09-11 22:00:00 NR 21.7000 144.100 main 1529 1499 __________O___ -1 21.7000 144.100 7 9 308
1923254N21145 1923 61 WP MM NOT_NAMED 1923-09-12 00:00:00 NR 21.8973 143.827 main 1499 1450 __________P___ -1 21.8973 143.827 7 10 307
1923254N21145 1923 61 WP MM NOT_NAMED 1923-09-12 03:00:00 NR 22.2244 143.348 main 1450 1386 __________P___ -1 22.2244 143.348 7 12 306
1923254N21145 1923 61 WP MM NOT_NAMED 1923-09-12 06:00:00 NR 22.5831 142.819 main 1386 1323 __________P___ -1 22.5831 142.819 7 12 307
1923254N21145 1923 61 WP MM NOT_NAMED 1923-09-12 09:00:00 NR 22.9673 142.277 main 1323 1303 __________P___ -1 22.9673 142.277 7 13 308
1923254N21145 1923 61 WP MM NOT_NAMED 1923-09-12 10:00:00 NR 23.1000 142.100 main 1303 1260 __________O___ -1 23.1000 142.100 7 12 311
1923254N21145 1923 61 WP MM NOT_NAMED 1923-09-12 12:00:00 NR 23.3791 141.770 main 1260 1197 __________P___ -1 23.3791 141.770 7 13 314
1923254N21145 1923 61 WP MM NOT_NAMED 1923-09-12 15:00:00 NR 23.8172 141.281 main 1197 1125 __________P___ -1 23.8172 141.281 7 12 315
1923254N21145 1923 61 WP MM NOT_NAMED 1923-09-12 18:00:00 NR 24.2563 140.805 main 1125 1064 __________P___ -1 24.2563 140.805 7 12 315
1923254N21145 1923 61 WP MM NOT_NAMED 1923-09-12 21:00:00 NR 24.6713 140.347 main 1064 1050 __________P___ -1 24.6713 140.347 7 12 315
1923254N21145 1923 61 WP MM NOT_NAMED 1923-09-12 22:00:00 NR 24.8000 140.200 main 1050 1018 __________O___ -1 24.8000 140.200 7 11 312
1923254N21145 1923 61 WP MM NOT_NAMED 1923-09-13 00:00:00 NR 25.0255 139.912 main 1018 972 __________P___ -1 25.0255 139.912 7 10 310
1923254N21145 1923 61 WP MM NOT_NAMED 1923-09-13 03:00:00 NR 25.3325 139.501 main 972 926 __________P___ -1 25.3325 139.501 7 9 309
1923254N21145 1923 61 WP MM NOT_NAMED 1923-09-13 06:00:00 NR 25.6186 139.108 main 926 882 __________P___ -1 25.6186 139.108 7 9 309
1923254N21145 1923 61 WP MM NOT_NAMED 1923-09-13 09:00:00 NR 25.9026 138.726 main 882 868 __________P___ -1 25.9026 138.726 7 9 310
1923254N21145 1923 61 WP MM NOT_NAMED 1923-09-13 10:00:00 NR 26.0000 138.600 main 868 838 __________O___ -1 26.0000 138.600 7 9 312
1923254N21145 1923 61 WP MM NOT_NAMED 1923-09-13 12:00:00 NR 26.2018 138.349 main 838 798 __________P___ -1 26.2018 138.349 7 9 313
1923254N21145 1923 61 WP MM NOT_NAMED 1923-09-13 15:00:00 NR 26.5194 137.975 main 798 756 __________P___ -1 26.5194 137.975 7 9 314
1923254N21145 1923 61 WP MM NOT_NAMED 1923-09-13 18:00:00 NR 26.8498 137.600 main 756 704 __________P___ -1 26.8498 137.600 7 9 315
1923254N21145 1923 61 WP MM NOT_NAMED 1923-09-13 21:00:00 NR 27.1871 137.225 main 704 691 __________P___ -1 27.1871 137.225 7 10 315
1923254N21145 1923 61 WP MM NOT_NAMED 1923-09-13 22:00:00 NR 27.3000 137.100 main 691 __________O___ -1 27.3000 137.100 7 10 316

Digital Typhoon Data and Search

About IBTrACS Database

This database is a web-friendly format of International Best Track Archive for Climate Stewardship (IBTrACS), a global best track data archive curated by NOAA dating back to 1842.

Updated: 2021-10-25